Time,TemperatureF,DewpointF,PressureIn,WindDirection,WindDirectionDegrees,WindSpeedMPH,WindSpeedGustMPH,Humidity,HourlyPrecipIn,Conditions,Clouds,dailyrainin,SolarRadiationWatts/m^2,SoftwareType,DateUTC
2013-02-13 00:03:00,38.0,35.0,30.35,WNW,285,0.0,1.0,89,0.00,,,0.00,0,Wunderground v.1.15,2013-02-13 08:03:00,
2013-02-13 00:09:00,37.8,34.8,30.35,WNW,285,0.0,1.0,89,0.00,,,0.00,0,Wunderground v.1.15,2013-02-13 08:09:00,
2013-02-13 00:15:00,37.7,34.8,30.35,WNW,285,0.0,1.0,89,0.00,,,0.00,0,Wunderground v.1.15,2013-02-13 08:15:00,
2013-02-13 00:21:00,37.6,34.7,30.35,WNW,285,0.0,1.0,89,0.00,,,0.00,0,Wunderground v.1.15,2013-02-13 08:21:00,
2013-02-13 00:27:00,37.7,34.8,30.35,WNW,285,0.0,1.0,89,0.00,,,0.00,0,Wunderground v.1.15,2013-02-13 08:27:00,
2013-02-13 00:33:00,37.6,34.9,30.35,WNW,285,0.0,2.0,90,0.00,,,0.00,0,Wunderground v.1.15,2013-02-13 08:33:00,
2013-02-13 00:39:00,37.5,34.8,30.35,WNW,285,0.0,1.0,90,0.00,,,0.00,0,Wunderground v.1.15,2013-02-13 08:39:00,
2013-02-13 00:45:00,37.4,34.5,30.35,WNW,285,0.0,1.0,89,0.00,,,0.00,0,Wunderground v.1.15,2013-02-13 08:45:00,
2013-02-13 00:51:00,37.2,34.3,30.35,WNW,285,0.0,1.0,89,0.00,,,0.00,0,Wunderground v.1.15,2013-02-13 08:51:00,
2013-02-13 00:57:00,37.0,34.3,30.35,WNW,285,0.0,1.0,90,0.00,,,0.00,0,Wunderground v.1.15,2013-02-13 08:57:00,
2013-02-13 01:03:00,36.9,34.2,30.35,WNW,285,0.0,2.0,90,0.00,,,0.00,0,Wunderground v.1.15,2013-02-13 09:03:00,
2013-02-13 01:09:00,37.0,34.3,30.35,WNW,285,0.0,2.0,90,0.00,,,0.00,0,Wunderground v.1.15,2013-02-13 09:09:00,
2013-02-13 01:15:00,37.0,34.3,30.35,WNW,285,0.0,2.0,90,0.00,,,0.00,0,Wunderground v.1.15,2013-02-13 09:15:00,
2013-02-13 01:21:00,36.8,34.1,30.35,WNW,285,0.0,2.0,90,0.00,,,0.00,0,Wunderground v.1.15,2013-02-13 09:21:00,
2013-02-13 01:27:00,36.6,33.9,30.35,WNW,285,0.0,2.0,90,0.00,,,0.00,0,Wunderground v.1.15,2013-02-13 09:27:00,
2013-02-13 01:33:00,36.4,33.7,30.35,WNW,285,0.0,2.0,90,0.00,,,0.00,0,Wunderground v.1.15,2013-02-13 09:33:00,
2013-02-13 01:39:00,36.3,33.6,30.35,WNW,285,0.0,2.0,90,0.00,,,0.00,0,Wunderground v.1.15,2013-02-13 09:39:00,
2013-02-13 01:45:00,36.3,33.6,30.35,WNW,285,0.0,2.0,90,0.00,,,0.00,0,Wunderground v.1.15,2013-02-13 09:45:00,
2013-02-13 01:51:00,36.2,33.5,30.35,WNW,285,0.0,2.0,90,0.00,,,0.00,0,Wunderground v.1.15,2013-02-13 09:51:00,
2013-02-13 01:57:00,36.1,33.5,30.35,WNW,285,0.0,2.0,90,0.00,,,0.00,0,Wunderground v.1.15,2013-02-13 09:57:00,
2013-02-13 02:03:00,35.9,33.3,30.35,WNW,285,0.0,2.0,90,0.00,,,0.00,0,Wunderground v.1.15,2013-02-13 10:03:00,
2013-02-13 02:09:00,35.7,33.1,30.35,WNW,285,0.0,2.0,90,0.00,,,0.00,0,Wunderground v.1.15,2013-02-13 10:09:00,
2013-02-13 02:15:00,35.6,33.0,30.35,WNW,285,0.0,2.0,90,0.00,,,0.00,0,Wunderground v.1.15,2013-02-13 10:15:00,
2013-02-13 02:21:00,35.6,33.2,30.34,WNW,285,0.0,2.0,91,0.00,,,0.00,0,Wunderground v.1.15,2013-02-13 10:21:00,
2013-02-13 02:27:00,35.5,32.9,30.34,WNW,285,0.0,2.0,90,0.00,,,0.00,0,Wunderground v.1.15,2013-02-13 10:27:00,
2013-02-13 02:33:00,35.3,32.9,30.34,WNW,285,0.0,2.0,91,0.00,,,0.00,0,Wunderground v.1.15,2013-02-13 10:33:00,
2013-02-13 02:39:00,35.2,32.8,30.34,WNW,285,0.0,2.0,91,0.00,,,0.00,0,Wunderground v.1.15,2013-02-13 10:39:00,
2013-02-13 02:45:00,35.1,32.7,30.33,WNW,285,0.0,2.0,91,0.00,,,0.00,0,Wunderground v.1.15,2013-02-13 10:45:00,
2013-02-13 02:51:00,35.0,32.6,30.33,WNW,285,0.0,2.0,91,0.00,,,0.00,0,Wunderground v.1.15,2013-02-13 10:51:00,
2013-02-13 02:57:00,34.9,32.5,30.33,WNW,285,0.0,2.0,91,0.00,,,0.00,0,Wunderground v.1.15,2013-02-13 10:57:00,
2013-02-13 03:03:00,34.8,32.4,30.33,WNW,285,0.0,2.0,91,0.00,,,0.00,0,Wunderground v.1.15,2013-02-13 11:03:00,
2013-02-13 03:09:00,34.7,32.3,30.33,WNW,285,0.0,2.0,91,0.00,,,0.00,0,Wunderground v.1.15,2013-02-13 11:09:00,
2013-02-13 03:15:00,34.6,32.2,30.33,WNW,285,0.0,2.0,91,0.00,,,0.00,0,Wunderground v.1.15,2013-02-13 11:15:00,
2013-02-13 03:21:00,34.4,32.0,30.33,WNW,285,0.0,2.0,91,0.00,,,0.00,0,Wunderground v.1.15,2013-02-13 11:21:00,
2013-02-13 03:27:00,34.2,31.8,30.33,WNW,285,0.0,2.0,91,0.00,,,0.00,0,Wunderground v.1.15,2013-02-13 11:27:00,
2013-02-13 03:33:00,34.0,31.6,30.33,WNW,285,0.0,2.0,91,0.00,,,0.00,0,Wunderground v.1.15,2013-02-13 11:33:00,
2013-02-13 13:20:00,64.4,40.8,30.28,NW,319,5.0,12.0,42,0.00,,,0.00,601,Wunderground v.1.15,2013-02-13 21:20:00,
2013-02-13 13:26:00,64.7,41.7,30.28,North,351,5.0,12.0,43,0.00,,,0.00,594,Wunderground v.1.15,2013-02-13 21:26:00,
2013-02-13 13:32:00,64.7,41.7,30.28,NNW,340,5.0,12.0,43,0.00,,,0.00,591,Wunderground v.1.15,2013-02-13 21:32:00,
2013-02-13 13:38:00,64.7,41.1,30.28,NNW,345,6.0,12.0,42,0.00,,,0.00,584,Wunderground v.1.15,2013-02-13 21:38:00,
2013-02-13 13:44:00,64.7,41.1,30.27,North,5,6.0,12.0,42,0.00,,,0.00,575,Wunderground v.1.15,2013-02-13 21:44:00,
2013-02-13 13:50:00,64.8,41.2,30.27,NW,319,6.0,6.0,42,0.00,,,0.00,568,Wunderground v.1.15,2013-02-13 21:50:00,
2013-02-13 13:56:00,64.8,40.5,30.26,NNW,329,6.0,12.0,41,0.00,,,0.00,561,Wunderground v.1.15,2013-02-13 21:56:00,
2013-02-13 14:02:00,64.7,41.1,30.26,NW,313,6.0,11.0,42,0.00,,,0.00,554,Wunderground v.1.15,2013-02-13 22:02:00,
2013-02-13 14:08:00,64.9,41.2,30.25,NNW,339,5.0,11.0,42,0.00,,,0.00,541,Wunderground v.1.15,2013-02-13 22:08:00,
2013-02-13 14:14:00,65.2,40.3,30.26,NW,321,5.0,11.0,40,0.00,,,0.00,529,Wunderground v.1.15,2013-02-13 22:14:00,
2013-02-13 14:20:00,65.3,40.3,30.26,WSW,246,4.0,11.0,40,0.00,,,0.00,519,Wunderground v.1.15,2013-02-13 22:20:00,
2013-02-13 14:26:00,65.5,41.2,30.25,NW,323,4.0,11.0,41,0.00,,,0.00,510,Wunderground v.1.15,2013-02-13 22:26:00,
2013-02-13 14:32:00,65.8,40.8,30.25,NNW,330,4.0,11.0,40,0.00,,,0.00,497,Wunderground v.1.15,2013-02-13 22:32:00,
2013-02-13 14:38:00,66.1,42.3,30.25,NNW,348,3.0,11.0,42,0.00,,,0.00,487,Wunderground v.1.15,2013-02-13 22:38:00,
2013-02-13 14:44:00,66.2,41.8,30.25,WNW,288,4.0,11.0,41,0.00,,,0.00,475,Wunderground v.1.15,2013-02-13 22:44:00,
2013-02-13 14:50:00,66.3,42.5,30.25,NW,323,4.0,11.0,42,0.00,,,0.00,461,Wunderground v.1.15,2013-02-13 22:50:00,
2013-02-13 14:56:00,66.2,43.0,30.24,NW,308,4.0,11.0,43,0.00,,,0.00,446,Wunderground v.1.15,2013-02-13 22:56:00,
2013-02-13 15:02:00,66.1,42.3,30.24,NW,315,4.0,12.0,42,0.00,,,0.00,431,Wunderground v.1.15,2013-02-13 23:02:00,
2013-02-13 15:08:00,66.1,42.3,30.24,NNW,341,4.0,12.0,42,0.00,,,0.00,418,Wunderground v.1.15,2013-02-13 23:08:00,
2013-02-13 15:14:00,66.2,43.6,30.24,West,261,3.0,12.0,44,0.00,,,0.00,403,Wunderground v.1.15,2013-02-13 23:14:00,
2013-02-13 15:20:00,66.6,43.4,30.24,WNW,288,2.0,2.0,43,0.00,,,0.00,232,Wunderground v.1.15,2013-02-13 23:20:00,
2013-02-13 15:26:00,66.5,43.3,30.24,WNW,288,2.0,12.0,43,0.00,,,0.00,373,Wunderground v.1.15,2013-02-13 23:26:00,
2013-02-13 15:32:00,66.2,43.0,30.24,WSW,242,2.0,12.0,43,0.00,,,0.00,357,Wunderground v.1.15,2013-02-13 23:32:00,
2013-02-13 15:38:00,66.3,43.7,30.23,West,259,2.0,12.0,44,0.00,,,0.00,339,Wunderground v.1.15,2013-02-13 23:38:00,
2013-02-13 15:44:00,66.3,43.7,30.24,West,267,2.0,12.0,44,0.00,,,0.00,323,Wunderground v.1.15,2013-02-13 23:44:00,
2013-02-13 15:50:00,66.4,43.8,30.24,WSW,258,2.0,12.0,44,0.00,,,0.00,306,Wunderground v.1.15,2013-02-13 23:50:00,
2013-02-13 15:56:00,66.2,44.2,30.23,SSW,204,2.0,12.0,45,0.00,,,0.00,288,Wunderground v.1.15,2013-02-13 23:56:00,
2013-02-13 16:02:00,65.9,43.4,30.23,SSW,213,2.0,10.0,44,0.00,,,0.00,267,Wunderground v.1.15,2013-02-14 00:02:00,
2013-02-13 16:08:00,65.4,43.5,30.23,SSW,209,2.0,10.0,45,0.00,,,0.00,246,Wunderground v.1.15,2013-02-14 00:08:00,
2013-02-13 16:14:00,65.0,43.7,30.23,SSW,210,2.0,10.0,46,0.00,,,0.00,225,Wunderground v.1.15,2013-02-14 00:14:00,
2013-02-13 16:20:00,65.1,44.4,30.23,SW,225,1.0,10.0,47,0.00,,,0.00,202,Wunderground v.1.15,2013-02-14 00:20:00,
2013-02-13 16:26:00,64.6,43.9,30.23,SW,220,3.0,10.0,47,0.00,,,0.00,181,Wunderground v.1.15,2013-02-14 00:26:00,
2013-02-13 16:32:00,63.8,43.7,30.23,SW,215,4.0,10.0,48,0.00,,,0.00,158,Wunderground v.1.15,2013-02-14 00:32:00,
2013-02-13 16:38:00,63.2,44.2,30.23,SSW,202,3.0,10.0,50,0.00,,,0.00,137,Wunderground v.1.15,2013-02-14 00:38:00,
2013-02-13 16:44:00,62.7,44.3,30.23,SSW,206,2.0,10.0,51,0.00,,,0.00,116,Wunderground v.1.15,2013-02-14 00:44:00,
2013-02-13 16:50:00,62.4,44.5,30.23,SSW,203,2.0,2.0,52,0.00,,,0.00,95,Wunderground v.1.15,2013-02-14 00:50:00,
2013-02-13 16:56:00,62.1,44.8,30.23,SSW,205,2.0,10.0,53,0.00,,,0.00,77,Wunderground v.1.15,2013-02-14 00:56:00,
2013-02-13 17:02:00,61.8,45.0,30.23,SSW,207,1.0,9.0,54,0.00,,,0.00,60,Wunderground v.1.15,2013-02-14 01:02:00,
2013-02-13 17:08:00,61.6,45.3,30.23,SSW,207,0.0,9.0,55,0.00,,,0.00,25,Wunderground v.1.15,2013-02-14 01:08:00,
2013-02-13 17:14:00,61.5,45.2,30.23,SSW,207,0.0,9.0,55,0.00,,,0.00,23,Wunderground v.1.15,2013-02-14 01:14:00,
2013-02-13 17:20:00,61.2,45.4,30.23,SSW,207,0.0,9.0,56,0.00,,,0.00,19,Wunderground v.1.15,2013-02-14 01:20:00,
2013-02-13 17:26:00,60.9,45.1,30.23,SSW,207,0.0,9.0,56,0.00,,,0.00,16,Wunderground v.1.15,2013-02-14 01:26:00,
2013-02-13 17:32:00,60.4,45.1,30.22,WNW,303,1.0,9.0,57,0.00,,,0.00,12,Wunderground v.1.15,2013-02-14 01:32:00,
2013-02-13 17:38:00,59.8,45.0,30.22,WNW,283,1.0,9.0,58,0.00,,,0.00,9,Wunderground v.1.15,2013-02-14 01:38:00,
2013-02-13 17:44:00,59.1,44.8,30.22,WNW,290,0.0,9.0,59,0.00,,,0.00,7,Wunderground v.1.15,2013-02-14 01:44:00,
2013-02-13 17:50:00,58.4,44.6,30.22,WNW,296,1.0,9.0,60,0.00,,,0.00,0,Wunderground v.1.15,2013-02-14 01:50:00,
2013-02-13 17:56:00,57.7,44.3,30.23,WNW,296,1.0,9.0,61,0.00,,,0.00,0,Wunderground v.1.15,2013-02-14 01:56:00,
2013-02-13 18:02:00,57.2,44.3,30.23,NW,308,0.0,3.0,62,0.00,,,0.00,0,Wunderground v.1.15,2013-02-14 02:02:00,
2013-02-13 18:08:00,56.6,44.1,30.23,NW,309,0.0,5.0,63,0.00,,,0.00,0,Wunderground v.1.15,2013-02-14 02:08:00,
2013-02-13 18:14:00,56.1,43.7,30.23,NW,309,0.0,5.0,63,0.00,,,0.00,0,Wunderground v.1.15,2013-02-14 02:14:00,
2013-02-13 18:20:00,55.6,43.6,30.23,NW,309,0.0,5.0,64,0.00,,,0.00,0,Wunderground v.1.15,2013-02-14 02:20:00,
2013-02-13 18:26:00,55.1,43.5,30.23,NW,309,1.0,5.0,65,0.00,,,0.00,0,Wunderground v.1.15,2013-02-14 02:26:00,
2013-02-13 18:32:00,54.8,43.3,30.23,NW,309,0.0,5.0,65,0.00,,,0.00,0,Wunderground v.1.15,2013-02-14 02:32:00,
2013-02-13 18:38:00,54.3,43.2,30.23,NW,309,0.0,5.0,66,0.00,,,0.00,0,Wunderground v.1.15,2013-02-14 02:38:00,
2013-02-13 18:44:00,53.9,43.2,30.23,NW,309,0.0,5.0,67,0.00,,,0.00,0,Wunderground v.1.15,2013-02-14 02:44:00,
2013-02-13 18:50:00,53.5,43.2,30.23,NW,309,0.0,5.0,68,0.00,,,0.00,0,Wunderground v.1.15,2013-02-14 02:50:00,
2013-02-13 18:56:00,53.0,43.1,30.22,NW,309,0.0,5.0,69,0.00,,,0.00,0,Wunderground v.1.15,2013-02-14 02:56:00,
2013-02-13 19:02:00,52.6,43.1,30.22,NW,309,0.0,4.0,70,0.00,,,0.00,0,Wunderground v.1.15,2013-02-14 03:02:00,
2013-02-13 19:08:00,52.2,43.1,30.23,NW,309,0.0,4.0,71,0.00,,,0.00,0,Wunderground v.1.15,2013-02-14 03:08:00,
2013-02-13 19:14:00,51.8,42.7,30.22,NW,309,0.0,4.0,71,0.00,,,0.00,0,Wunderground v.1.15,2013-02-14 03:14:00,
2013-02-13 19:20:00,51.4,42.7,30.22,NW,309,0.0,4.0,72,0.00,,,0.00,0,Wunderground v.1.15,2013-02-14 03:20:00,
2013-02-13 19:26:00,50.9,42.6,30.23,NW,309,0.0,4.0,73,0.00,,,0.00,0,Wunderground v.1.15,2013-02-14 03:26:00,
2013-02-13 19:32:00,50.4,42.4,30.23,NW,309,0.0,4.0,74,0.00,,,0.00,0,Wunderground v.1.15,2013-02-14 03:32:00,
2013-02-13 19:38:00,49.9,42.3,30.23,NW,309,0.0,4.0,75,0.00,,,0.00,0,Wunderground v.1.15,2013-02-14 03:38:00,
2013-02-13 19:44:00,49.6,42.0,30.23,NW,309,0.0,4.0,75,0.00,,,0.00,0,Wunderground v.1.15,2013-02-14 03:44:00,
2013-02-13 19:50:00,49.4,42.1,30.23,NW,309,0.0,4.0,76,0.00,,,0.00,0,Wunderground v.1.15,2013-02-14 03:50:00,
2013-02-13 19:56:00,49.1,42.2,30.23,NW,309,0.0,4.0,77,0.00,,,0.00,0,Wunderground v.1.15,2013-02-14 03:56:00,
2013-02-13 20:02:00,48.8,41.9,30.23,NW,309,0.0,2.0,77,0.00,,,0.00,0,Wunderground v.1.15,2013-02-14 04:02:00,
2013-02-13 20:08:00,48.5,42.0,30.23,NW,309,0.0,2.0,78,0.00,,,0.00,0,Wunderground v.1.15,2013-02-14 04:08:00,
2013-02-13 20:14:00,48.2,41.7,30.23,NW,309,0.0,2.0,78,0.00,,,0.00,0,Wunderground v.1.15,2013-02-14 04:14:00,
2013-02-13 20:20:00,47.8,41.3,30.24,NW,309,0.0,2.0,78,0.00,,,0.00,0,Wunderground v.1.15,2013-02-14 04:20:00,
2013-02-13 20:26:00,47.5,41.3,30.24,NW,309,0.0,2.0,79,0.00,,,0.00,0,Wunderground v.1.15,2013-02-14 04:26:00,
2013-02-13 20:32:00,47.2,40.7,30.24,NW,309,0.0,2.0,78,0.00,,,0.00,0,Wunderground v.1.15,2013-02-14 04:32:00,
2013-02-13 20:38:00,46.9,40.7,30.24,NW,309,0.0,2.0,79,0.00,,,0.00,0,Wunderground v.1.15,2013-02-14 04:38:00,
2013-02-13 20:44:00,46.6,40.4,30.24,NW,309,0.0,2.0,79,0.00,,,0.00,0,Wunderground v.1.15,2013-02-14 04:44:00,
2013-02-13 20:50:00,46.2,40.4,30.25,NW,309,0.0,2.0,80,0.00,,,0.00,0,Wunderground v.1.15,2013-02-14 04:50:00,
2013-02-13 20:56:00,45.9,40.1,30.24,NW,309,0.0,2.0,80,0.00,,,0.00,0,Wunderground v.1.15,2013-02-14 04:56:00,
2013-02-13 21:00:00,45.7,40.2,30.24,NW,309,0.0,1.0,81,0.00,,,0.00,0,Wunderground v.1.15,2013-02-14 05:00:00,
2013-02-13 21:02:00,45.6,40.1,30.24,NW,309,0.0,1.0,81,0.00,,,0.00,0,Wunderground v.1.15,2013-02-14 05:02:00,
2013-02-13 21:04:00,45.5,40.0,30.24,NW,309,0.0,1.0,81,0.00,,,0.00,0,Wunderground v.1.15,2013-02-14 05:04:00,
2013-02-13 21:06:00,45.4,39.9,30.24,NW,309,0.0,1.0,81,0.00,,,0.00,0,Wunderground v.1.15,2013-02-14 05:06:00,
2013-02-13 21:12:00,45.1,39.6,30.24,NW,309,0.0,1.0,81,0.00,,,0.00,0,Wunderground v.1.15,2013-02-14 05:12:00,
2013-02-13 21:18:00,44.9,39.7,30.24,NW,309,0.0,1.0,82,0.00,,,0.00,0,Wunderground v.1.15,2013-02-14 05:18:00,
2013-02-13 21:24:00,44.5,39.7,30.24,NW,309,0.0,1.0,83,0.00,,,0.00,0,Wunderground v.1.15,2013-02-14 05:24:00,
2013-02-13 21:30:00,44.3,39.5,30.25,NW,309,0.0,1.0,83,0.00,,,0.00,0,Wunderground v.1.15,2013-02-14 05:30:00,
2013-02-13 21:36:00,44.0,39.2,30.25,NW,309,0.0,1.0,83,0.00,,,0.00,0,Wunderground v.1.15,2013-02-14 05:36:00,
2013-02-13 21:42:00,43.8,39.0,30.25,NW,309,0.0,1.0,83,0.00,,,0.00,0,Wunderground v.1.15,2013-02-14 05:42:00,
2013-02-13 21:48:00,43.5,38.7,30.25,NW,309,0.0,1.0,83,0.00,,,0.00,0,Wunderground v.1.15,2013-02-14 05:48:00,
2013-02-13 21:54:00,43.2,38.4,30.24,NW,309,0.0,1.0,83,0.00,,,0.00,0,Wunderground v.1.15,2013-02-14 05:54:00,
2013-02-13 22:00:00,43.0,38.5,30.24,NW,309,0.0,1.0,84,0.00,,,0.00,0,Wunderground v.1.15,2013-02-14 06:00:00,
2013-02-13 22:06:00,42.7,38.2,30.24,NW,309,0.0,1.0,84,0.00,,,0.00,0,Wunderground v.1.15,2013-02-14 06:06:00,
2013-02-13 22:12:00,42.5,38.0,30.24,NW,309,0.0,1.0,84,0.00,,,0.00,0,Wunderground v.1.15,2013-02-14 06:12:00,
2013-02-13 22:18:00,42.3,37.8,30.25,NW,309,0.0,1.0,84,0.00,,,0.00,0,Wunderground v.1.15,2013-02-14 06:18:00,
2013-02-13 22:24:00,42.0,37.8,30.25,NW,309,0.0,1.0,85,0.00,,,0.00,0,Wunderground v.1.15,2013-02-14 06:24:00,
2013-02-13 22:30:00,41.8,37.6,30.25,NW,309,0.0,1.0,85,0.00,,,0.00,0,Wunderground v.1.15,2013-02-14 06:30:00,
2013-02-13 22:36:00,41.6,37.4,30.25,NW,309,0.0,1.0,85,0.00,,,0.00,0,Wunderground v.1.15,2013-02-14 06:36:00,
2013-02-13 22:42:00,41.4,37.2,30.25,NW,309,0.0,1.0,85,0.00,,,0.00,0,Wunderground v.1.15,2013-02-14 06:42:00,
2013-02-13 22:48:00,41.2,37.0,30.25,NW,309,0.0,1.0,85,0.00,,,0.00,0,Wunderground v.1.15,2013-02-14 06:48:00,
2013-02-13 22:54:00,41.0,37.1,30.25,NW,309,0.0,1.0,86,0.00,,,0.00,0,Wunderground v.1.15,2013-02-14 06:54:00,
2013-02-13 23:00:00,40.9,37.0,30.25,NW,309,0.0,1.0,86,0.00,,,0.00,0,Wunderground v.1.15,2013-02-14 07:00:00,
2013-02-13 23:06:00,40.6,36.7,30.25,NW,309,0.0,1.0,86,0.00,,,0.00,0,Wunderground v.1.15,2013-02-14 07:06:00,
2013-02-13 23:12:00,40.4,36.8,30.25,NW,309,0.0,1.0,87,0.00,,,0.00,0,Wunderground v.1.15,2013-02-14 07:12:00,
2013-02-13 23:18:00,40.3,36.7,30.25,NW,309,0.0,1.0,87,0.00,,,0.00,0,Wunderground v.1.15,2013-02-14 07:18:00,
2013-02-13 23:24:00,40.1,36.5,30.25,NW,309,0.0,1.0,87,0.00,,,0.00,0,Wunderground v.1.15,2013-02-14 07:24:00,
2013-02-13 23:30:00,39.9,36.3,30.25,NW,309,0.0,1.0,87,0.00,,,0.00,0,Wunderground v.1.15,2013-02-14 07:30:00,
2013-02-13 23:36:00,39.8,36.5,30.25,NW,309,0.0,1.0,88,0.00,,,0.00,0,Wunderground v.1.15,2013-02-14 07:36:00,
2013-02-13 23:42:00,39.6,36.0,30.25,NW,309,0.0,1.0,87,0.00,,,0.00,0,Wunderground v.1.15,2013-02-14 07:42:00,
2013-02-13 23:48:00,39.4,36.1,30.25,NW,309,0.0,1.0,88,0.00,,,0.00,0,Wunderground v.1.15,2013-02-14 07:48:00,
2013-02-13 23:54:00,39.2,35.9,30.25,NW,309,0.0,1.0,88,0.00,,,0.00,0,Wunderground v.1.15,2013-02-14 07:54:00,